Time;durP1;ratioP1;P1;durP2;ratioP2;P2;SDS_P1;SDS_P2;PMS_P1;PMS_P2;Temp;Humidity;BMP_temperature;BMP_pressure;BME280_temperature;BME280_humidity;BME280_pressure;Samples;Min_cycle;Max_cycle;Signal;HPM_P1;HPM_P2
2023/03/23 00:01:49;;;;;;;20.50;14.20;;;;;;;;;;5054847;28;20476;-70
2023/03/23 00:04:15;;;;;;;20.63;14.43;;;;;;;;;;5072703;28;20033;-70
2023/03/23 00:06:40;;;;;;;20.42;13.30;;;;;;;;;;5072443;28;20173;-70
2023/03/23 00:09:07;;;;;;;19.80;13.25;;;;;;;;;;5054387;28;20032;-71
2023/03/23 00:11:33;;;;;;;18.65;13.25;;;;;;;;;;5059225;28;20025;-71
2023/03/23 00:14:22;;;;;;;20.55;13.48;;;;;;;;;;5078069;28;20100;-71
2023/03/23 00:16:48;;;;;;;27.27;17.05;;;;;;;;;;5056531;23;20060;-70
2023/03/23 00:19:14;;;;;;;21.60;14.50;;;;;;;;;;5076286;28;20086;-69
2023/03/23 00:21:41;;;;;;;21.40;14.88;;;;;;;;;;5058480;28;20103;-67
2023/03/23 00:24:08;;;;;;;21.50;14.73;;;;;;;;;;5058502;28;20032;-67
2023/03/23 00:26:35;;;;;;;21.40;14.55;;;;;;;;;;5076262;28;20020;-67
2023/03/23 00:29:04;;;;;;;22.20;13.85;;;;;;;;;;5058229;28;20027;-68
2023/03/23 00:31:34;;;;;;;21.40;14.38;;;;;;;;;;5058379;28;20029;-67
2023/03/23 00:34:03;;;;;;;19.67;13.40;;;;;;;;;;5055502;23;20067;-70
2023/03/23 00:36:34;;;;;;;21.40;13.45;;;;;;;;;;5038264;28;20021;-71
2023/03/23 00:39:01;;;;;;;19.58;13.70;;;;;;;;;;5038141;28;20036;-71
2023/03/23 00:41:27;;;;;;;19.30;13.77;;;;;;;;;;5054268;28;20040;-70
2023/03/23 00:43:53;;;;;;;28.52;14.80;;;;;;;;;;5055628;28;20025;-71
2023/03/23 00:46:20;;;;;;;22.27;13.40;;;;;;;;;;5055592;28;20079;-71
2023/03/23 00:48:46;;;;;;;20.38;13.80;;;;;;;;;;5055540;28;20021;-70
2023/03/23 00:51:12;;;;;;;20.80;14.02;;;;;;;;;;5055502;28;20101;-71
2023/03/23 00:53:40;;;;;;;21.17;13.82;;;;;;;;;;5055434;28;20041;-72
2023/03/23 00:56:06;;;;;;;19.05;12.90;;;;;;;;;;5054241;28;20021;-71
2023/03/23 00:58:32;;;;;;;19.25;13.23;;;;;;;;;;5054458;28;20028;-71
2023/03/23 01:00:57;;;;;;;21.20;13.90;;;;;;;;;;5055266;28;20108;-71
2023/03/23 01:03:25;;;;;;;23.08;14.60;;;;;;;;;;5037468;28;20032;-71
2023/03/23 01:05:51;;;;;;;20.60;14.35;;;;;;;;;;5055160;28;20056;-71
2023/03/23 01:08:18;;;;;;;22.70;13.68;;;;;;;;;;5055169;28;20029;-71
2023/03/23 01:10:44;;;;;;;19.40;13.70;;;;;;;;;;5055785;28;20579;-70
2023/03/23 01:13:10;;;;;;;21.92;13.32;;;;;;;;;;5055840;28;20025;-70
2023/03/23 01:15:35;;;;;;;18.65;13.82;;;;;;;;;;5054305;28;20039;-70
2023/03/23 01:18:01;;;;;;;19.83;13.93;;;;;;;;;;5055220;28;20021;-70
2023/03/23 01:20:28;;;;;;;23.80;14.63;;;;;;;;;;5053620;28;20029;-69
2023/03/23 01:23:00;;;;;;;23.90;14.88;;;;;;;;;;5054453;28;20059;-69
2023/03/23 01:25:25;;;;;;;22.02;15.32;;;;;;;;;;5054946;28;20037;-70
2023/03/23 01:27:51;;;;;;;21.10;15.13;;;;;;;;;;5055074;28;20080;-70
2023/03/23 01:30:16;;;;;;;22.33;14.77;;;;;;;;;;5055182;28;20078;-70
2023/03/23 01:32:41;;;;;;;23.02;15.05;;;;;;;;;;5053930;28;20091;-69
2023/03/23 01:35:08;;;;;;;20.02;13.55;;;;;;;;;;5053706;28;20040;-69
2023/03/23 01:37:33;;;;;;;20.50;13.98;;;;;;;;;;5053676;28;20040;-68
2023/03/23 01:40:01;;;;;;;20.42;13.10;;;;;;;;;;5036989;28;20033;-68
2023/03/23 01:42:30;;;;;;;20.25;14.07;;;;;;;;;;5054898;28;20044;-69
2023/03/23 01:45:19;;;;;;;19.45;14.13;;;;;;;;;;5020412;28;20512;-69
2023/03/23 01:47:57;;;;;;;19.05;13.55;;;;;;;;;;5036750;28;20033;-70
2023/03/23 01:50:23;;;;;;;20.65;13.98;;;;;;;;;;5036708;28;20040;-70
2023/03/23 01:52:51;;;;;;;21.52;13.85;;;;;;;;;;5036667;28;20048;-70
2023/03/23 01:55:17;;;;;;;20.25;13.20;;;;;;;;;;5037230;28;20059;-70
2023/03/23 01:57:44;;;;;;;18.58;13.18;;;;;;;;;;5021161;28;20370;-70
2023/03/23 02:00:14;;;;;;;17.98;14.00;;;;;;;;;;5021469;28;20104;-70
2023/03/23 02:02:45;;;;;;;20.15;14.05;;;;;;;;;;5054380;28;20048;-71
2023/03/23 02:05:14;;;;;;;19.38;14.75;;;;;;;;;;5020071;28;20028;-70
2023/03/23 02:07:41;;;;;;;20.92;14.57;;;;;;;;;;5020159;28;20020;-70
2023/03/23 02:10:07;;;;;;;19.95;14.02;;;;;;;;;;5036341;28;20436;-70
2023/03/23 02:12:34;;;;;;;19.13;13.35;;;;;;;;;;5036323;28;20177;-70
2023/03/23 02:15:04;;;;;;;20.17;13.88;;;;;;;;;;5036226;28;20039;-70
2023/03/23 02:17:33;;;;;;;20.52;14.75;;;;;;;;;;5020318;28;20044;-70
2023/03/23 02:19:58;;;;;;;19.48;13.98;;;;;;;;;;5036057;28;20029;-70
2023/03/23 02:22:43;;;;;;;21.15;15.13;;;;;;;;;;5036163;28;20370;-70
2023/03/23 02:25:15;;;;;;;21.95;14.85;;;;;;;;;;5036438;28;20021;-70
2023/03/23 02:27:41;;;;;;;19.38;14.57;;;;;;;;;;5019850;28;20029;-71
2023/03/23 02:30:10;;;;;;;20.02;14.43;;;;;;;;;;5035931;28;20033;-71
2023/03/23 02:32:44;;;;;;;19.52;14.25;;;;;;;;;;5019049;28;20044;-69
2023/03/23 02:35:16;;;;;;;19.40;13.52;;;;;;;;;;5035405;28;20051;-70
2023/03/23 02:37:50;;;;;;;23.75;14.27;;;;;;;;;;5053736;28;20040;-70
2023/03/23 02:45:48;;;;;;;19.08;13.85;;;;;;;;;;4993698;23;20084;-69
2023/03/23 02:48:16;;;;;;;22.73;13.60;;;;;;;;;;4994491;28;20077;-70
2023/03/23 02:54:18;;;;;;;17.60;12.68;;;;;;;;;;3906233;26;20496;-68
2023/03/23 02:56:44;;;;;;;17.10;12.40;;;;;;;;;;5015872;28;20473;-66
2023/03/23 02:59:20;;;;;;;17.27;13.10;;;;;;;;;;5033443;28;20091;-66
2023/03/23 03:01:52;;;;;;;16.25;11.73;;;;;;;;;;5049047;28;20022;-66
2023/03/23 03:04:20;;;;;;;18.55;12.73;;;;;;;;;;5015781;28;20485;-67
2023/03/23 03:06:48;;;;;;;21.17;12.95;;;;;;;;;;4999399;28;20033;-68
2023/03/23 03:09:19;;;;;;;17.48;12.85;;;;;;;;;;5033421;28;20051;-66
2023/03/23 03:11:47;;;;;;;17.63;12.25;;;;;;;;;;5015816;28;20026;-66
2023/03/23 03:14:17;;;;;;;21.30;12.60;;;;;;;;;;5033424;28;20030;-67
2023/03/23 03:16:45;;;;;;;18.95;11.98;;;;;;;;;;5015764;28;20022;-66
2023/03/23 03:19:15;;;;;;;25.98;15.00;;;;;;;;;;5048743;28;20030;-65
2023/03/23 03:21:43;;;;;;;21.13;13.77;;;;;;;;;;5015665;28;20033;-65
2023/03/23 03:24:11;;;;;;;19.42;12.70;;;;;;;;;;5015581;28;20025;-66
2023/03/23 03:26:45;;;;;;;18.45;12.10;;;;;;;;;;5033922;28;20505;-65
2023/03/23 03:29:33;;;;;;;20.85;13.02;;;;;;;;;;5016434;28;20048;-65
2023/03/23 03:32:01;;;;;;;19.65;12.90;;;;;;;;;;5015873;28;20053;-65
2023/03/23 03:34:27;;;;;;;19.80;13.35;;;;;;;;;;5015466;28;20474;-65
2023/03/23 03:36:54;;;;;;;20.50;12.43;;;;;;;;;;4999167;28;20049;-65
2023/03/23 03:39:21;;;;;;;22.38;12.93;;;;;;;;;;4999090;28;20373;-65
2023/03/23 03:41:47;;;;;;;24.02;13.50;;;;;;;;;;5015427;28;20034;-64
2023/03/23 03:44:12;;;;;;;18.88;12.30;;;;;;;;;;5015642;28;20022;-64
2023/03/23 03:46:39;;;;;;;20.00;12.60;;;;;;;;;;5019301;28;20026;-64
2023/03/23 03:49:08;;;;;;;17.60;12.13;;;;;;;;;;5019250;28;20088;-64
2023/03/23 03:51:36;;;;;;;21.38;11.60;;;;;;;;;;5052287;28;20060;-64
2023/03/23 03:54:03;;;;;;;16.75;11.48;;;;;;;;;;5002845;28;20107;-64
2023/03/23 03:56:32;;;;;;;20.20;12.57;;;;;;;;;;5002716;28;20116;-64
2023/03/23 03:59:12;;;;;;;18.10;11.32;;;;;;;;;;5019054;28;20473;-65
2023/03/23 04:02:04;;;;;;;18.25;11.45;;;;;;;;;;5018972;28;20063;-63
2023/03/23 04:04:29;;;;;;;18.38;11.98;;;;;;;;;;5019082;28;20033;-63
2023/03/23 04:06:54;;;;;;;18.30;11.43;;;;;;;;;;5019206;28;20025;-64
2023/03/23 04:09:21;;;;;;;18.52;11.45;;;;;;;;;;5018840;28;20021;-64
2023/03/23 04:11:47;;;;;;;20.58;12.15;;;;;;;;;;5018754;28;20473;-64
2023/03/23 04:14:33;;;;;;;16.83;11.68;;;;;;;;;;5018432;28;20065;-64
2023/03/23 04:16:59;;;;;;;17.88;11.00;;;;;;;;;;5018715;28;20520;-65
2023/03/23 04:19:25;;;;;;;15.40;10.70;;;;;;;;;;5036286;28;20033;-63
2023/03/23 04:21:50;;;;;;;16.10;11.00;;;;;;;;;;5051701;28;20029;-64
2023/03/23 04:24:21;;;;;;;19.40;11.10;;;;;;;;;;5018519;28;20033;-64
2023/03/23 04:26:47;;;;;;;14.13;10.00;;;;;;;;;;5002446;28;20033;-62
2023/03/23 04:29:20;;;;;;;16.40;10.73;;;;;;;;;;5018459;28;20021;-65
2023/03/23 04:32:09;;;;;;;16.75;10.75;;;;;;;;;;5036124;28;20388;-64
2023/03/23 04:34:39;;;;;;;14.77;10.38;;;;;;;;;;5018312;28;20493;-64
2023/03/23 04:39:39;;;;;;;15.07;10.60;;;;;;;;;;5013797;23;20057;-68
2023/03/23 04:42:09;;;;;;;16.85;11.23;;;;;;;;;;4959248;28;20109;-68
2023/03/23 04:45:09;;;;;;;14.88;9.80;;;;;;;;;;4977287;28;20049;-68
2023/03/23 04:47:40;;;;;;;15.27;10.20;;;;;;;;;;4959793;28;20368;-68
2023/03/23 04:50:15;;;;;;;15.57;10.63;;;;;;;;;;4977045;28;20043;-68
2023/03/23 04:52:44;;;;;;;14.43;10.55;;;;;;;;;;4959730;28;20513;-68
2023/03/23 04:55:11;;;;;;;16.43;10.43;;;;;;;;;;4959636;28;20037;-68
2023/03/23 04:57:39;;;;;;;27.42;18.35;;;;;;;;;;4958511;28;20031;-63
2023/03/23 05:00:33;;;;;;;28.85;20.05;;;;;;;;;;4977016;28;20432;-65
2023/03/23 05:03:00;;;;;;;15.85;11.60;;;;;;;;;;4959435;28;20039;-64
2023/03/23 05:05:29;;;;;;;18.92;13.18;;;;;;;;;;4963696;23;20141;-64
2023/03/23 05:07:55;;;;;;;16.13;11.20;;;;;;;;;;5013771;23;20390;-68
2023/03/23 05:13:16;;;;;;;43.70;25.45;;;;;;;;;;5022053;23;20617;-65
2023/03/23 05:15:45;;;;;;;99.07;57.33;;;;;;;;;;4998012;28;20026;-65
2023/03/23 05:18:11;;;;;;;129.77;78.53;;;;;;;;;;5028918;28;20401;-66
2023/03/23 05:20:37;;;;;;;167.00;106.60;;;;;;;;;;5029681;28;20034;-65
2023/03/23 05:23:08;;;;;;;178.93;115.68;;;;;;;;;;5030630;28;20543;-66
2023/03/23 05:25:36;;;;;;;173.88;111.13;;;;;;;;;;5030726;28;20389;-66
2023/03/23 05:28:06;;;;;;;139.23;88.88;;;;;;;;;;5031498;28;20029;-69
2023/03/23 05:30:52;;;;;;;127.03;81.47;;;;;;;;;;5027671;28;20067;-71
2023/03/23 05:33:18;;;;;;;108.82;70.10;;;;;;;;;;5030518;28;20561;-71
2023/03/23 05:35:58;;;;;;;125.40;88.45;;;;;;;;;;5012039;28;20034;-71
2023/03/23 05:38:29;;;;;;;100.05;73.10;;;;;;;;;;5013902;28;20409;-71
2023/03/23 05:40:59;;;;;;;88.35;64.15;;;;;;;;;;5013761;28;20038;-71
2023/03/23 05:43:27;;;;;;;52.58;35.47;;;;;;;;;;4997501;28;20036;-71
2023/03/23 05:46:06;;;;;;;46.20;33.65;;;;;;;;;;5015126;28;20020;-71
2023/03/23 05:48:32;;;;;;;66.03;43.67;;;;;;;;;;5030236;28;20030;-68
2023/03/23 05:50:58;;;;;;;49.45;35.40;;;;;;;;;;5030291;28;20029;-70
2023/03/23 05:53:25;;;;;;;55.15;37.00;;;;;;;;;;5030397;28;20124;-68
2023/03/23 05:55:52;;;;;;;51.83;36.33;;;;;;;;;;5013614;28;20473;-68
2023/03/23 05:58:24;;;;;;;48.85;34.88;;;;;;;;;;5030691;28;20037;-63
2023/03/23 06:00:50;;;;;;;34.55;25.63;;;;;;;;;;5015294;28;20056;-65
2023/03/23 06:03:24;;;;;;;49.80;35.03;;;;;;;;;;5015224;28;20026;-72
2023/03/23 06:06:00;;;;;;;53.20;36.15;;;;;;;;;;5014623;28;20025;-72
2023/03/23 06:08:36;;;;;;;55.08;37.70;;;;;;;;;;5014374;28;20041;-72
2023/03/23 06:11:02;;;;;;;52.00;36.13;;;;;;;;;;5029966;28;20029;-72
2023/03/23 06:13:30;;;;;;;47.78;31.33;;;;;;;;;;5029833;28;20048;-72
2023/03/23 06:16:03;;;;;;;48.72;33.30;;;;;;;;;;4997219;28;20088;-72
2023/03/23 06:19:00;;;;;;;47.10;31.80;;;;;;;;;;5002879;28;20072;-72
2023/03/23 06:21:31;;;;;;;44.17;29.98;;;;;;;;;;4996534;28;20030;-71
2023/03/23 06:24:23;;;;;;;34.58;24.70;;;;;;;;;;5012243;28;20042;-67
2023/03/23 06:26:49;;;;;;;34.65;23.65;;;;;;;;;;5029580;28;20022;-72
2023/03/23 06:29:18;;;;;;;25.87;18.83;;;;;;;;;;4996807;28;20084;-64
2023/03/23 06:31:48;;;;;;;19.75;15.15;;;;;;;;;;5012892;28;20370;-65
2023/03/23 06:34:14;;;;;;;17.35;12.80;;;;;;;;;;5029605;28;20050;-64
2023/03/23 06:36:58;;;;;;;15.98;11.63;;;;;;;;;;5014935;28;20041;-64
2023/03/23 06:39:34;;;;;;;14.07;11.18;;;;;;;;;;5029289;28;20026;-60
2023/03/23 06:42:14;;;;;;;16.73;11.77;;;;;;;;;;5029654;23;20427;-64
2023/03/23 06:44:45;;;;;;;15.90;10.80;;;;;;;;;;5009234;28;20453;-64
2023/03/23 06:47:11;;;;;;;15.48;11.15;;;;;;;;;;5009149;28;20030;-64
2023/03/23 06:49:44;;;;;;;13.25;10.32;;;;;;;;;;4976184;28;20026;-61
2023/03/23 06:52:23;;;;;;;15.75;10.15;;;;;;;;;;5007496;28;20064;-61
2023/03/23 06:54:50;;;;;;;12.00;10.20;;;;;;;;;;4993616;28;20034;-61
2023/03/23 06:57:17;;;;;;;13.65;10.07;;;;;;;;;;4976439;28;20069;-62
2023/03/23 06:59:45;;;;;;;15.07;10.50;;;;;;;;;;4975725;28;20049;-62
2023/03/23 07:02:11;;;;;;;15.75;9.40;;;;;;;;;;5007074;28;20382;-63
2023/03/23 07:04:38;;;;;;;13.90;10.77;;;;;;;;;;4974722;28;20385;-58
2023/03/23 07:07:13;;;;;;;13.77;10.52;;;;;;;;;;5006589;28;20037;-59
2023/03/23 07:09:46;;;;;;;17.58;11.20;;;;;;;;;;4974337;28;20385;-64
2023/03/23 07:12:15;;;;;;;14.85;10.45;;;;;;;;;;4975555;28;20034;-64
2023/03/23 07:14:45;;;;;;;12.13;9.63;;;;;;;;;;4975745;28;20034;-64
2023/03/23 07:17:11;;;;;;;13.10;9.98;;;;;;;;;;4975723;28;20053;-64
2023/03/23 07:19:41;;;;;;;13.55;9.98;;;;;;;;;;4960963;28;20494;-59
2023/03/23 07:22:11;;;;;;;11.73;9.13;;;;;;;;;;4979786;28;20037;-64
2023/03/23 07:24:39;;;;;;;12.20;9.07;;;;;;;;;;4980166;28;20394;-64
2023/03/23 07:27:15;;;;;;;12.65;9.15;;;;;;;;;;4997112;28;20026;-64
2023/03/23 07:29:41;;;;;;;10.57;8.15;;;;;;;;;;4995932;28;20057;-59
2023/03/23 07:32:14;;;;;;;12.27;8.55;;;;;;;;;;4979864;28;20022;-64
2023/03/23 07:34:39;;;;;;;10.85;8.45;;;;;;;;;;4980185;28;20546;-64
2023/03/23 07:37:28;;;;;;;13.35;9.10;;;;;;;;;;4989189;28;20552;-64
2023/03/23 07:39:54;;;;;;;11.57;9.43;;;;;;;;;;4963148;28;20058;-64
2023/03/23 07:42:19;;;;;;;12.70;8.98;;;;;;;;;;4979016;28;20018;-64
2023/03/23 07:44:57;;;;;;;11.65;8.70;;;;;;;;;;4996584;28;20379;-65
2023/03/23 07:47:22;;;;;;;10.30;8.35;;;;;;;;;;4995317;28;20121;-65
2023/03/23 07:49:48;;;;;;;12.63;8.50;;;;;;;;;;4979057;28;20479;-65
2023/03/23 07:52:20;;;;;;;11.10;8.45;;;;;;;;;;4979037;28;20037;-65
2023/03/23 07:54:46;;;;;;;10.88;8.50;;;;;;;;;;4978973;28;20042;-65
2023/03/23 07:57:37;;;;;;;11.43;8.45;;;;;;;;;;4993339;28;20042;-65
2023/03/23 08:00:11;;;;;;;12.55;8.75;;;;;;;;;;4979526;28;20030;-65
2023/03/23 08:02:41;;;;;;;12.02;8.63;;;;;;;;;;4996520;28;20039;-65
2023/03/23 08:05:30;;;;;;;11.88;8.48;;;;;;;;;;4977291;28;20545;-65
2023/03/23 08:08:11;;;;;;;12.38;7.93;;;;;;;;;;4978470;28;20058;-65
2023/03/23 08:10:39;;;;;;;9.23;8.00;;;;;;;;;;4996282;28;20391;-65
2023/03/23 08:13:38;;;;;;;9.50;7.68;;;;;;;;;;4981557;28;20080;-65
2023/03/23 08:16:22;;;;;;;8.57;7.15;;;;;;;;;;5008684;28;20101;-65
2023/03/23 08:19:00;;;;;;;8.48;7.07;;;;;;;;;;4978645;28;20040;-59
2023/03/23 08:21:59;;;;;;;7.13;6.43;;;;;;;;;;4963402;28;20045;-59
2023/03/23 08:24:25;;;;;;;10.65;6.45;;;;;;;;;;4996852;28;20034;-59
2023/03/23 08:27:09;;;;;;;6.38;5.40;;;;;;;;;;4996405;28;20084;-59
2023/03/23 08:29:46;;;;;;;7.00;5.63;;;;;;;;;;4996164;28;20034;-59
2023/03/23 08:32:37;;;;;;;8.40;5.75;;;;;;;;;;4988555;28;20034;-59
2023/03/23 08:35:15;;;;;;;6.25;5.63;;;;;;;;;;4978121;28;20540;-59
2023/03/23 08:37:57;;;;;;;6.30;5.63;;;;;;;;;;4980264;28;20117;-59
2023/03/23 08:40:58;;;;;;;8.00;5.57;;;;;;;;;;4963497;28;20129;-59
2023/03/23 08:43:59;;;;;;;7.45;4.78;;;;;;;;;;4950798;29;20126;-59
2023/03/23 08:46:56;;;;;;;8.13;5.38;;;;;;;;;;4974383;28;20042;-59
2023/03/23 08:49:45;;;;;;;6.72;4.93;;;;;;;;;;4995943;28;20030;-59
2023/03/23 08:52:33;;;;;;;5.25;4.75;;;;;;;;;;4989892;28;20038;-64
2023/03/23 08:55:17;;;;;;;8.38;5.05;;;;;;;;;;4981040;28;20430;-61
2023/03/23 08:58:09;;;;;;;6.43;4.90;;;;;;;;;;4989458;28;20038;-61
2023/03/23 09:00:53;;;;;;;7.85;5.22;;;;;;;;;;4980681;28;20121;-62
2023/03/23 09:03:38;;;;;;;5.60;4.75;;;;;;;;;;4995546;28;20046;-66
2023/03/23 09:06:24;;;;;;;7.60;4.40;;;;;;;;;;4951407;28;20026;-57
2023/03/23 09:08:50;;;;;;;7.13;5.22;;;;;;;;;;4995216;28;20050;-57
2023/03/23 09:11:16;;;;;;;5.38;4.65;;;;;;;;;;4994879;28;20077;-57
2023/03/23 09:13:41;;;;;;;6.50;4.45;;;;;;;;;;4977355;28;20034;-57
2023/03/23 09:16:07;;;;;;;7.15;3.97;;;;;;;;;;4995049;28;20038;-57
2023/03/23 09:18:33;;;;;;;8.77;4.35;;;;;;;;;;4995070;28;20065;-57
2023/03/23 09:20:59;;;;;;;5.03;4.18;;;;;;;;;;4994836;28;20114;-57
2023/03/23 09:23:24;;;;;;;4.35;3.85;;;;;;;;;;4994864;28;20478;-57
2023/03/23 09:25:51;;;;;;;4.65;4.13;;;;;;;;;;4995128;28;20435;-57
2023/03/23 09:28:17;;;;;;;6.82;4.25;;;;;;;;;;4994978;28;20021;-57
2023/03/23 09:30:43;;;;;;;4.22;3.78;;;;;;;;;;4994808;28;20034;-57
2023/03/23 09:33:09;;;;;;;4.38;3.97;;;;;;;;;;4994769;28;20054;-57
2023/03/23 09:35:38;;;;;;;6.30;4.40;;;;;;;;;;4994802;28;20521;-57
2023/03/23 09:38:03;;;;;;;5.32;3.70;;;;;;;;;;4977311;28;20038;-59
2023/03/23 09:40:32;;;;;;;6.75;3.75;;;;;;;;;;5009686;28;20084;-57
2023/03/23 09:43:21;;;;;;;4.60;3.95;;;;;;;;;;4976458;28;20034;-57
2023/03/23 09:46:01;;;;;;;5.20;3.53;;;;;;;;;;4959031;28;20041;-57
2023/03/23 09:48:38;;;;;;;4.40;3.28;;;;;;;;;;4995267;28;20034;-57
2023/03/23 09:51:27;;;;;;;5.15;3.67;;;;;;;;;;4977479;28;20053;-57
2023/03/23 09:53:58;;;;;;;4.47;3.60;;;;;;;;;;4994788;28;20026;-62
2023/03/23 09:56:27;;;;;;;4.70;2.85;;;;;;;;;;4994464;28;20030;-70
2023/03/23 09:59:01;;;;;;;4.95;3.42;;;;;;;;;;4995171;28;20069;-63
2023/03/23 10:01:42;;;;;;;3.55;3.10;;;;;;;;;;4991575;28;20450;-57
2023/03/23 10:04:07;;;;;;;;;;;;;;;;;;4995249;28;20030;-57
2023/03/23 10:06:33;;;;;;;3.00;2.70;;;;;;;;;;4994470;28;19905;-57
2023/03/23 10:09:01;;;;;;;4.30;3.38;;;;;;;;;;4994424;28;20027;-57
2023/03/23 10:11:30;;;;;;;2.83;2.33;;;;;;;;;;4977268;28;20030;-57
2023/03/23 10:13:55;;;;;;;2.53;2.13;;;;;;;;;;4992507;28;20019;-57
2023/03/23 10:16:37;;;;;;;5.20;3.50;;;;;;;;;;4994092;28;20041;-57
2023/03/23 10:19:16;;;;;;;3.10;2.70;;;;;;;;;;4994570;28;20042;-57
2023/03/23 10:21:46;;;;;;;4.57;3.17;;;;;;;;;;4995300;28;20414;-57
2023/03/23 10:24:15;;;;;;;5.15;2.95;;;;;;;;;;4995080;28;20030;-57
2023/03/23 10:26:43;;;;;;;6.65;3.17;;;;;;;;;;4994621;28;20034;-57
2023/03/23 10:29:14;;;;;;;4.75;2.63;;;;;;;;;;4994442;28;20030;-63
2023/03/23 10:31:43;;;;;;;2.95;2.45;;;;;;;;;;4977011;28;20038;-66
2023/03/23 10:34:13;;;;;;;5.45;3.25;;;;;;;;;;4976955;28;20053;-66
2023/03/23 10:36:59;;;;;;;2.55;1.95;;;;;;;;;;4994442;28;20122;-66
2023/03/23 10:39:27;;;;;;;6.30;3.30;;;;;;;;;;4980374;28;20042;-66
2023/03/23 10:41:53;;;;;;;3.65;2.45;;;;;;;;;;4994251;28;20022;-66
2023/03/23 10:44:22;;;;;;;1.27;1.10;;;;;;;;;;4941752;28;20043;-67
2023/03/23 10:47:04;;;;;;;3.35;2.70;;;;;;;;;;4955834;29;20055;-67
2023/03/23 10:49:35;;;;;;;4.10;2.65;;;;;;;;;;4956250;29;20113;-66
2023/03/23 10:52:04;;;;;;;2.75;1.52;;;;;;;;;;4955591;29;20039;-66
2023/03/23 10:54:38;;;;;;;2.20;1.52;;;;;;;;;;4954463;29;20355;-67
2023/03/23 10:57:12;;;;;;;6.57;2.70;;;;;;;;;;4922241;29;20031;-66
2023/03/23 10:59:40;;;;;;;5.65;3.08;;;;;;;;;;4955471;29;20028;-67
2023/03/23 11:02:14;;;;;;;6.00;2.92;;;;;;;;;;4937782;29;20031;-66
2023/03/23 11:04:40;;;;;;;4.45;2.90;;;;;;;;;;4954720;29;20096;-66
2023/03/23 11:07:13;;;;;;;9.02;2.47;;;;;;;;;;4954649;29;20117;-66
2023/03/23 11:09:50;;;;;;;7.80;2.88;;;;;;;;;;4937554;29;20130;-66
2023/03/23 11:12:17;;;;;;;3.20;1.77;;;;;;;;;;4954461;29;20032;-66
2023/03/23 11:14:44;;;;;;;3.50;2.20;;;;;;;;;;4954628;29;20027;-66
2023/03/23 11:17:21;;;;;;;5.60;2.38;;;;;;;;;;4954329;29;20037;-66
2023/03/23 11:19:48;;;;;;;3.13;2.00;;;;;;;;;;4954700;29;20038;-66
2023/03/23 11:22:21;;;;;;;2.00;1.85;;;;;;;;;;4954985;29;20031;-66
2023/03/23 11:24:47;;;;;;;2.55;1.50;;;;;;;;;;4954989;29;20087;-66
2023/03/23 11:27:14;;;;;;;1.83;1.70;;;;;;;;;;4937527;29;20368;-66
2023/03/23 11:29:53;;;;;;;3.95;1.95;;;;;;;;;;4937450;29;20058;-59
2023/03/23 11:32:22;;;;;;;1.38;1.23;;;;;;;;;;4954782;29;20031;-67
2023/03/23 11:34:48;;;;;;;1.77;1.48;;;;;;;;;;4954344;29;20048;-59
2023/03/23 11:37:18;;;;;;;2.90;1.80;;;;;;;;;;4954388;29;20035;-66
2023/03/23 11:39:48;;;;;;;1.40;1.25;;;;;;;;;;4937370;29;20439;-66
2023/03/23 11:42:20;;;;;;;1.50;1.40;;;;;;;;;;4955705;28;20055;-66
2023/03/23 11:44:45;;;;;;;2.03;1.42;;;;;;;;;;4956851;28;20027;-64
2023/03/23 11:47:40;;;;;;;1.50;1.40;;;;;;;;;;4956324;28;20439;-66
2023/03/23 11:50:12;;;;;;;1.20;1.20;;;;;;;;;;4936258;28;20400;-66
2023/03/23 11:52:57;;;;;;;1.60;1.25;;;;;;;;;;4974179;28;20066;-66
2023/03/23 11:55:30;;;;;;;2.28;1.67;;;;;;;;;;4973658;28;20043;-59
2023/03/23 11:57:55;;;;;;;2.15;1.85;;;;;;;;;;4974296;28;20035;-59
2023/03/23 12:00:22;;;;;;;1.98;1.77;;;;;;;;;;4973638;28;20048;-66
2023/03/23 12:03:02;;;;;;;1.27;1.20;;;;;;;;;;4974119;28;20022;-66
2023/03/23 12:05:48;;;;;;;2.35;1.60;;;;;;;;;;4975504;28;20042;-66
2023/03/23 12:08:22;;;;;;;1.88;1.60;;;;;;;;;;4977641;28;20079;-66
2023/03/23 12:10:50;;;;;;;2.22;1.25;;;;;;;;;;4977153;28;20030;-66
2023/03/23 12:13:26;;;;;;;2.90;1.45;;;;;;;;;;4960020;28;20041;-66
2023/03/23 12:16:12;;;;;;;2.13;1.35;;;;;;;;;;4977575;28;20038;-66
2023/03/23 12:18:47;;;;;;;3.38;1.50;;;;;;;;;;4928668;28;20070;-59
2023/03/23 12:21:31;;;;;;;3.65;1.55;;;;;;;;;;4959967;28;20372;-59
2023/03/23 12:24:06;;;;;;;1.98;1.77;;;;;;;;;;4960130;28;20039;-59
2023/03/23 12:26:35;;;;;;;2.10;1.70;;;;;;;;;;4976729;28;20035;-59
2023/03/23 12:29:16;;;;;;;2.38;1.58;;;;;;;;;;4976849;28;20029;-59
2023/03/23 12:31:53;;;;;;;1.40;1.30;;;;;;;;;;4977073;28;20031;-59
2023/03/23 12:34:37;;;;;;;1.92;1.77;;;;;;;;;;4977209;28;20063;-59
2023/03/23 12:37:21;;;;;;;1.60;1.50;;;;;;;;;;4976905;28;20031;-59
2023/03/23 12:39:50;;;;;;;1.70;1.58;;;;;;;;;;4976670;28;20058;-59
2023/03/23 12:42:21;;;;;;;2.67;1.55;;;;;;;;;;4976649;28;20022;-59
2023/03/23 12:44:53;;;;;;;2.33;1.40;;;;;;;;;;4976941;28;20031;-60
2023/03/23 12:47:32;;;;;;;2.20;2.00;;;;;;;;;;4976836;28;20118;-57
2023/03/23 12:50:04;;;;;;;1.65;1.10;;;;;;;;;;4976501;28;20128;-57
2023/03/23 12:52:41;;;;;;;3.05;1.33;;;;;;;;;;4976615;28;20043;-59
2023/03/23 12:55:20;;;;;;;1.80;1.63;;;;;;;;;;4976881;28;20039;-59
2023/03/23 12:57:55;;;;;;;1.10;1.00;;;;;;;;;;4959469;28;20031;-59
2023/03/23 13:00:23;;;;;;;1.55;1.40;;;;;;;;;;4976600;28;20125;-59
2023/03/23 13:02:55;;;;;;;1.50;1.40;;;;;;;;;;4976452;28;20416;-59
2023/03/23 13:05:24;;;;;;;2.70;1.50;;;;;;;;;;4976475;28;20026;-59
2023/03/23 13:07:55;;;;;;;2.92;1.75;;;;;;;;;;4975833;28;20078;-59
2023/03/23 13:10:33;;;;;;;2.10;1.63;;;;;;;;;;4975887;28;20031;-59
2023/03/23 13:12:59;;;;;;;1.75;1.52;;;;;;;;;;4959049;28;20049;-65
2023/03/23 13:15:31;;;;;;;1.67;1.58;;;;;;;;;;4976222;28;20483;-66
2023/03/23 13:18:09;;;;;;;1.45;1.25;;;;;;;;;;4975145;28;20069;-66
2023/03/23 13:20:34;;;;;;;2.55;1.63;;;;;;;;;;4975905;28;20043;-64
2023/03/23 13:23:38;;;;;;;1.60;1.42;;;;;;;;;;4958470;28;20027;-66
2023/03/23 13:26:05;;;;;;;3.38;1.48;;;;;;;;;;4863073;29;20043;-67
2023/03/23 13:28:33;;;;;;;1.58;1.45;;;;;;;;;;4847610;29;20505;-66
2023/03/23 13:31:00;;;;;;;1.65;1.55;;;;;;;;;;4909366;28;20039;-66
2023/03/23 13:33:29;;;;;;;1.98;1.80;;;;;;;;;;4975171;28;20031;-66
2023/03/23 13:35:54;;;;;;;4.30;1.73;;;;;;;;;;4957891;28;20027;-64
2023/03/23 13:38:22;;;;;;;3.63;1.92;;;;;;;;;;4957859;28;20385;-64
2023/03/23 13:40:49;;;;;;;3.35;1.95;;;;;;;;;;4957828;28;20085;-64
2023/03/23 13:43:24;;;;;;;2.75;1.58;;;;;;;;;;4948789;29;20047;-64
2023/03/23 13:45:51;;;;;;;1.75;1.65;;;;;;;;;;4955955;29;20464;-64
2023/03/23 13:48:21;;;;;;;2.92;1.67;;;;;;;;;;4956124;29;20034;-64
2023/03/23 13:50:53;;;;;;;2.15;1.90;;;;;;;;;;4954567;29;20046;-64
2023/03/23 13:53:41;;;;;;;2.30;1.75;;;;;;;;;;4956217;29;20035;-57
2023/03/23 13:56:16;;;;;;;2.50;1.85;;;;;;;;;;4938410;29;20391;-57
2023/03/23 13:58:46;;;;;;;3.50;2.80;;;;;;;;;;4955957;29;20101;-57
2023/03/23 14:01:16;;;;;;;1.63;1.52;;;;;;;;;;4956266;29;20071;-57
2023/03/23 14:03:43;;;;;;;3.08;2.33;;;;;;;;;;4955634;29;20031;-57
2023/03/23 14:06:14;;;;;;;2.22;1.30;;;;;;;;;;4955626;29;20027;-57
2023/03/23 14:09:04;;;;;;;1.52;1.42;;;;;;;;;;4955322;29;20391;-57
2023/03/23 14:11:31;;;;;;;3.70;2.53;;;;;;;;;;4937562;29;20066;-57
2023/03/23 14:13:59;;;;;;;1.92;1.80;;;;;;;;;;4938216;29;20471;-57
2023/03/23 14:16:37;;;;;;;2.88;2.60;;;;;;;;;;4955624;29;20034;-57
2023/03/23 14:19:03;;;;;;;3.20;2.20;;;;;;;;;;4955475;29;20039;-57
2023/03/23 14:21:40;;;;;;;3.97;2.28;;;;;;;;;;4937651;29;20057;-57
2023/03/23 14:24:10;;;;;;;2.75;1.35;;;;;;;;;;4955125;29;20023;-57
2023/03/23 14:26:35;;;;;;;3.08;1.60;;;;;;;;;;4955262;29;20039;-57
2023/03/23 14:29:02;;;;;;;1.83;1.70;;;;;;;;;;4955516;28;20031;-57
2023/03/23 14:31:28;;;;;;;3.17;2.22;;;;;;;;;;4955852;29;20034;-58
2023/03/23 14:33:55;;;;;;;2.60;2.00;;;;;;;;;;4937919;29;20468;-58
2023/03/23 14:36:26;;;;;;;4.03;2.25;;;;;;;;;;4955837;29;20066;-58
2023/03/23 14:39:07;;;;;;;5.40;2.10;;;;;;;;;;4955779;29;20035;-58
2023/03/23 14:41:33;;;;;;;3.67;3.03;;;;;;;;;;4955966;29;20091;-58
2023/03/23 14:44:00;;;;;;;5.25;4.85;;;;;;;;;;4969918;28;20102;-64
2023/03/23 14:46:26;;;;;;;3.88;2.40;;;;;;;;;;4974253;28;20066;-64
2023/03/23 14:48:51;;;;;;;2.53;2.25;;;;;;;;;;4974930;28;20054;-64
2023/03/23 14:51:18;;;;;;;2.65;2.13;;;;;;;;;;4956165;28;20038;-64
2023/03/23 14:53:44;;;;;;;2.55;2.03;;;;;;;;;;4956365;28;20066;-64
2023/03/23 14:56:13;;;;;;;4.45;2.10;;;;;;;;;;4956438;28;20030;-57
2023/03/23 14:58:42;;;;;;;4.57;2.20;;;;;;;;;;4956364;28;20031;-57
2023/03/23 15:01:12;;;;;;;3.05;2.63;;;;;;;;;;4973301;28;20038;-57
2023/03/23 15:03:42;;;;;;;2.15;2.00;;;;;;;;;;4972605;28;20022;-57
2023/03/23 15:06:12;;;;;;;2.85;2.10;;;;;;;;;;4972392;28;20022;-57
2023/03/23 15:08:38;;;;;;;3.25;2.05;;;;;;;;;;4972648;28;20035;-58
2023/03/23 15:11:09;;;;;;;4.00;2.45;;;;;;;;;;4973311;28;20030;-58
2023/03/23 15:13:35;;;;;;;4.28;2.40;;;;;;;;;;4956262;28;20050;-57